createdAt,value
2018-03-31T00:00:08.669Z,8.76
2018-03-31T00:01:08.579Z,8.78
2018-03-31T00:02:08.711Z,8.80
2018-03-31T00:03:08.417Z,8.73
2018-03-31T00:04:08.361Z,8.78
2018-03-31T00:05:08.257Z,8.73
2018-03-31T00:06:08.273Z,8.73
2018-03-31T00:07:08.134Z,8.73
2018-03-31T00:08:08.311Z,8.63
2018-03-31T00:09:07.936Z,8.67
2018-03-31T00:10:07.900Z,8.65
2018-03-31T00:11:07.772Z,8.70
2018-03-31T00:12:07.855Z,8.70
2018-03-31T00:13:07.619Z,8.67
2018-03-31T00:14:07.599Z,8.70
2018-03-31T00:15:07.436Z,8.60
2018-03-31T00:16:07.442Z,8.52
2018-03-31T00:17:07.277Z,8.61
2018-03-31T00:18:07.266Z,8.55
2018-03-31T00:19:07.130Z,8.55
2018-03-31T00:20:07.131Z,8.63
2018-03-31T00:21:06.955Z,8.50
2018-03-31T00:22:06.954Z,8.49
2018-03-31T00:23:06.814Z,8.47
2018-03-31T00:24:06.785Z,8.55
2018-03-31T00:25:06.690Z,8.55
2018-03-31T00:26:06.656Z,8.54
2018-03-31T00:27:06.474Z,8.54
2018-03-31T00:28:06.465Z,8.43
2018-03-31T00:29:06.321Z,8.49
2018-03-31T00:30:06.280Z,8.43
2018-03-31T00:31:06.264Z,8.39
2018-03-31T00:32:06.191Z,8.37
2018-03-31T00:33:05.999Z,8.42
2018-03-31T00:34:06.112Z,8.42
2018-03-31T00:35:05.843Z,8.42
2018-03-31T00:36:05.805Z,8.50
2018-03-31T00:37:05.654Z,8.39
2018-03-31T00:38:05.617Z,8.46
2018-03-31T00:39:05.510Z,8.40
2018-03-31T00:40:05.555Z,8.36
2018-03-31T00:41:05.336Z,8.34
2018-03-31T00:42:05.338Z,8.29
2018-03-31T00:43:05.169Z,8.37
2018-03-31T00:44:05.142Z,8.36
2018-03-31T00:45:05.031Z,8.37
2018-03-31T00:46:05.055Z,8.37
2018-03-31T00:47:04.848Z,8.37
2018-03-31T00:48:04.869Z,8.31
2018-03-31T00:49:04.691Z,8.36
2018-03-31T00:50:04.699Z,8.31
2018-03-31T00:51:04.521Z,8.27
2018-03-31T00:52:04.586Z,8.39
2018-03-31T00:53:04.368Z,8.40
2018-03-31T00:54:04.427Z,8.37
2018-03-31T00:55:04.216Z,8.31
2018-03-31T00:56:04.197Z,8.21
2018-03-31T00:57:04.070Z,8.22
2018-03-31T00:58:04.008Z,8.27
2018-03-31T00:59:03.886Z,8.25
2018-03-31T01:00:03.963Z,8.29
2018-03-31T01:01:03.755Z,8.24
2018-03-31T01:02:03.798Z,8.21
2018-03-31T01:03:03.554Z,8.10
2018-03-31T01:04:03.538Z,8.10
2018-03-31T01:05:03.387Z,8.03
2018-03-31T01:06:03.373Z,8.03
2018-03-31T01:07:03.229Z,7.94
2018-03-31T01:08:03.250Z,7.96
2018-03-31T01:09:03.068Z,8.00
2018-03-31T01:10:03.056Z,7.94
2018-03-31T01:11:02.926Z,8.00
2018-03-31T01:12:02.871Z,7.89
2018-03-31T01:13:02.741Z,7.96
2018-03-31T01:14:02.782Z,7.95
2018-03-31T01:15:02.580Z,7.91
2018-03-31T01:16:02.623Z,7.84
2018-03-31T01:17:02.418Z,7.74
2018-03-31T01:18:02.397Z,7.69
2018-03-31T01:19:02.255Z,7.63
2018-03-31T01:20:02.183Z,7.58
2018-03-31T01:21:02.133Z,7.57
2018-03-31T01:22:02.118Z,7.58
2018-03-31T01:23:01.936Z,7.58
2018-03-31T01:24:02.024Z,7.54
2018-03-31T01:25:01.798Z,7.55
2018-03-31T01:26:01.759Z,7.54
2018-03-31T01:27:01.616Z,7.55
2018-03-31T01:28:01.637Z,7.60
2018-03-31T01:29:01.449Z,7.58
2018-03-31T01:30:01.453Z,7.63
2018-03-31T01:31:01.293Z,7.81
2018-03-31T01:32:01.308Z,7.77
2018-03-31T01:33:01.124Z,7.73
2018-03-31T01:34:01.174Z,7.73
2018-03-31T01:35:00.980Z,7.82
2018-03-31T01:36:00.981Z,7.71
2018-03-31T01:37:00.909Z,7.71
2018-03-31T01:38:00.797Z,7.71
2018-03-31T01:39:00.636Z,7.76
2018-03-31T01:40:00.705Z,7.76
2018-03-31T01:41:00.479Z,7.73
2018-03-31T01:42:00.535Z,7.60
2018-03-31T01:43:00.316Z,7.60
2018-03-31T01:44:00.235Z,7.60
2018-03-31T01:45:00.145Z,7.62
2018-03-31T01:46:00.128Z,7.55
2018-03-31T01:46:59.989Z,7.55
2018-03-31T01:47:59.959Z,7.51
2018-03-31T01:48:59.831Z,7.48
2018-03-31T01:49:59.837Z,7.51
2018-03-31T01:50:59.681Z,7.51
2018-03-31T01:51:59.645Z,7.48
2018-03-31T01:52:59.519Z,7.51
2018-03-31T01:53:59.452Z,7.36
2018-03-31T01:54:59.352Z,7.41
2018-03-31T01:55:59.425Z,7.37
2018-03-31T01:56:59.232Z,7.34
2018-03-31T01:57:59.209Z,7.33
2018-03-31T01:58:59.005Z,7.36
2018-03-31T01:59:59.060Z,7.37
2018-03-31T02:00:58.856Z,7.47
2018-03-31T02:01:58.921Z,7.39
2018-03-31T02:02:58.702Z,7.33
2018-03-31T02:03:58.712Z,7.39
2018-03-31T02:04:58.522Z,7.34
2018-03-31T02:05:58.513Z,7.32
2018-03-31T02:06:58.364Z,7.29
2018-03-31T02:07:58.358Z,7.29
2018-03-31T02:08:58.219Z,7.23
2018-03-31T02:09:58.227Z,7.27
2018-03-31T02:10:58.032Z,7.26
2018-03-31T02:11:58.036Z,7.18
2018-03-31T02:12:57.892Z,7.21
2018-03-31T02:13:57.878Z,7.18
2018-03-31T02:14:57.703Z,7.12
2018-03-31T02:15:57.771Z,7.15
2018-03-31T02:16:57.557Z,7.16
2018-03-31T02:17:57.570Z,7.18
2018-03-31T02:18:57.402Z,7.12
2018-03-31T02:19:57.378Z,7.19
2018-03-31T02:20:57.225Z,7.12
2018-03-31T02:21:57.184Z,7.14
2018-03-31T02:22:57.066Z,7.19
2018-03-31T02:23:57.126Z,7.19
2018-03-31T02:24:56.894Z,7.18
2018-03-31T02:25:56.904Z,7.09
2018-03-31T02:26:56.747Z,7.16
2018-03-31T02:27:56.755Z,7.16
2018-03-31T02:28:56.574Z,7.16
2018-03-31T02:29:56.657Z,7.24
2018-03-31T02:30:56.409Z,7.16
2018-03-31T02:31:56.440Z,7.04
2018-03-31T02:32:56.288Z,7.01
2018-03-31T02:33:56.241Z,6.99
2018-03-31T02:34:56.094Z,7.05
2018-03-31T02:35:56.048Z,6.97
2018-03-31T02:36:55.916Z,6.99
2018-03-31T02:37:55.856Z,6.90
2018-03-31T02:38:55.778Z,6.94
2018-03-31T02:39:55.774Z,6.94
2018-03-31T02:40:55.592Z,6.91
2018-03-31T02:41:55.534Z,6.86
2018-03-31T02:42:55.438Z,6.81
2018-03-31T02:43:56.455Z,6.82
2018-03-31T02:44:55.286Z,6.82
2018-03-31T02:45:55.310Z,6.90
2018-03-31T02:46:55.099Z,6.93
2018-03-31T02:47:55.101Z,6.94
2018-03-31T02:48:54.940Z,6.94
2018-03-31T02:49:54.942Z,6.90
2018-03-31T02:50:54.794Z,6.93
2018-03-31T02:51:54.821Z,6.96
2018-03-31T02:52:54.668Z,6.94
2018-03-31T02:53:54.636Z,6.94
2018-03-31T02:54:54.463Z,7.01
2018-03-31T02:55:54.565Z,6.94
2018-03-31T02:56:54.345Z,6.96
2018-03-31T02:57:54.250Z,6.91
2018-03-31T02:58:54.123Z,7.01
2018-03-31T02:59:54.191Z,6.87
2018-03-31T03:00:53.960Z,6.94
2018-03-31T03:01:53.968Z,6.86
2018-03-31T03:02:53.798Z,6.89
2018-03-31T03:03:53.774Z,6.94
2018-03-31T03:04:53.659Z,6.89
2018-03-31T03:05:53.673Z,6.90
2018-03-31T03:06:53.473Z,6.79
2018-03-31T03:07:53.494Z,6.76
2018-03-31T03:08:53.337Z,6.78
2018-03-31T03:09:53.300Z,6.75
2018-03-31T03:10:53.156Z,6.75
2018-03-31T03:11:53.110Z,6.64
2018-03-31T03:12:52.980Z,6.64
2018-03-31T03:13:52.965Z,6.68
2018-03-31T03:14:52.817Z,6.76
2018-03-31T03:15:52.832Z,6.75
2018-03-31T03:16:52.684Z,6.68
2018-03-31T03:17:52.639Z,6.55
2018-03-31T03:18:52.511Z,6.60
2018-03-31T03:19:52.450Z,6.51
2018-03-31T03:20:52.343Z,6.51
2018-03-31T03:21:52.385Z,6.54
2018-03-31T03:22:52.225Z,6.55
2018-03-31T03:23:52.164Z,6.53
2018-03-31T03:24:52.011Z,6.55
2018-03-31T03:25:52.061Z,6.53
2018-03-31T03:26:51.841Z,6.38
2018-03-31T03:27:51.782Z,6.30
2018-03-31T03:28:51.663Z,6.28
2018-03-31T03:29:51.692Z,6.17
2018-03-31T03:30:51.565Z,6.20
2018-03-31T03:31:51.503Z,6.27
2018-03-31T03:32:51.347Z,6.17
2018-03-31T03:33:51.316Z,6.24
2018-03-31T03:34:51.186Z,6.16
2018-03-31T03:35:51.223Z,6.21
2018-03-31T03:36:51.034Z,6.14
2018-03-31T03:37:51.054Z,6.02
2018-03-31T03:38:50.852Z,6.05
2018-03-31T03:39:50.840Z,6.01
2018-03-31T03:40:50.691Z,5.99
2018-03-31T03:41:50.693Z,5.98
2018-03-31T03:42:50.534Z,5.88
2018-03-31T03:43:50.557Z,5.90
2018-03-31T03:44:50.368Z,5.98
2018-03-31T03:45:50.367Z,5.85
2018-03-31T03:46:50.217Z,5.85
2018-03-31T03:47:50.218Z,5.75
2018-03-31T03:48:50.049Z,5.84
2018-03-31T03:49:49.990Z,5.90
2018-03-31T03:50:49.875Z,5.84
2018-03-31T03:51:49.920Z,5.88
2018-03-31T03:52:49.725Z,5.95
2018-03-31T03:53:49.701Z,5.87
2018-03-31T03:54:49.546Z,5.80
2018-03-31T03:55:49.609Z,5.93
2018-03-31T03:56:49.379Z,5.84
2018-03-31T03:57:49.425Z,5.87
2018-03-31T03:58:49.268Z,5.81
2018-03-31T03:59:49.234Z,5.77
2018-03-31T04:00:49.054Z,5.78
2018-03-31T04:01:49.144Z,5.85
2018-03-31T04:02:48.885Z,5.84
2018-03-31T04:03:48.848Z,5.63
2018-03-31T04:04:48.720Z,5.63
2018-03-31T04:05:48.765Z,5.73
2018-03-31T04:06:48.571Z,5.65
2018-03-31T04:07:48.612Z,5.73
2018-03-31T04:08:48.395Z,5.63
2018-03-31T04:09:48.373Z,5.70
2018-03-31T04:10:48.222Z,5.69
2018-03-31T04:11:48.188Z,5.62
2018-03-31T04:12:48.078Z,5.62
2018-03-31T04:13:48.092Z,5.58
2018-03-31T04:14:47.914Z,5.65
2018-03-31T04:15:47.904Z,5.58
2018-03-31T04:16:47.738Z,5.55
2018-03-31T04:17:47.754Z,5.59
2018-03-31T04:18:47.595Z,5.67
2018-03-31T04:19:47.558Z,5.58
2018-03-31T04:20:47.408Z,5.63
2018-03-31T04:21:47.458Z,5.62
2018-03-31T04:22:47.258Z,5.62
2018-03-31T04:23:47.239Z,5.67
2018-03-31T04:24:47.076Z,5.58
2018-03-31T04:25:47.094Z,5.66
2018-03-31T04:26:46.913Z,5.66
2018-03-31T04:27:46.886Z,5.66
2018-03-31T04:28:46.766Z,5.70
2018-03-31T04:29:46.768Z,5.65
2018-03-31T04:30:46.579Z,5.58
2018-03-31T04:31:46.576Z,5.69
2018-03-31T04:32:46.415Z,5.62
2018-03-31T04:33:46.417Z,5.63
2018-03-31T04:34:46.250Z,5.59
2018-03-31T04:35:46.300Z,5.58
2018-03-31T04:36:46.083Z,5.62
2018-03-31T04:37:46.099Z,5.59
2018-03-31T04:38:45.939Z,5.59
2018-03-31T04:39:45.918Z,5.65
2018-03-31T04:40:45.757Z,5.67
2018-03-31T04:41:45.721Z,5.66
2018-03-31T04:42:45.604Z,5.56
2018-03-31T04:43:45.670Z,5.60
2018-03-31T04:44:45.427Z,5.66
2018-03-31T04:45:45.433Z,5.59
2018-03-31T04:46:45.278Z,5.70
2018-03-31T04:47:45.246Z,5.69
2018-03-31T04:48:45.091Z,5.63
2018-03-31T04:49:45.057Z,5.65
2018-03-31T04:50:44.938Z,5.70
2018-03-31T04:51:44.994Z,5.78
2018-03-31T04:52:44.779Z,5.80
2018-03-31T04:53:45.189Z,5.78
2018-03-31T04:54:44.603Z,5.81
2018-03-31T04:57:26.850Z,5.77
2018-03-31T04:58:26.781Z,5.84
2018-03-31T04:59:26.634Z,5.77
2018-03-31T05:00:26.595Z,5.74
2018-03-31T05:01:26.538Z,5.69
2018-03-31T05:02:26.506Z,5.81
2018-03-31T05:03:26.302Z,5.84
2018-03-31T05:04:26.412Z,5.81
2018-03-31T05:05:26.162Z,5.80
2018-03-31T05:06:26.145Z,5.69
2018-03-31T05:07:25.978Z,5.66
2018-03-31T05:08:25.936Z,5.81
2018-03-31T05:09:25.808Z,5.78
2018-03-31T05:10:25.838Z,5.80
2018-03-31T05:11:25.667Z,5.80
2018-03-31T05:12:25.642Z,5.81
2018-03-31T05:13:25.486Z,5.70
2018-03-31T05:14:25.531Z,5.87
2018-03-31T05:15:25.314Z,5.85
2018-03-31T05:16:25.297Z,5.80
2018-03-31T05:17:25.160Z,5.78
2018-03-31T05:18:25.171Z,5.77
2018-03-31T05:19:24.995Z,5.77
2018-03-31T05:20:25.012Z,5.63
2018-03-31T05:21:24.899Z,5.66
2018-03-31T05:22:24.822Z,5.74
2018-03-31T05:23:24.657Z,5.78
2018-03-31T05:24:24.709Z,5.78
2018-03-31T05:25:24.518Z,5.80
2018-03-31T05:26:24.596Z,5.69
2018-03-31T05:27:24.332Z,5.84
2018-03-31T05:28:24.317Z,5.80
2018-03-31T05:29:24.162Z,5.74
2018-03-31T05:30:24.128Z,5.83
2018-03-31T05:31:24.023Z,5.65
2018-03-31T05:32:24.062Z,5.75
2018-03-31T05:33:23.845Z,5.75
2018-03-31T05:34:23.856Z,5.77
2018-03-31T05:35:23.685Z,5.80
2018-03-31T05:36:23.649Z,5.81
2018-03-31T05:37:23.528Z,5.80
2018-03-31T05:38:23.459Z,5.83
2018-03-31T05:39:23.347Z,5.73
2018-03-31T05:40:23.424Z,5.73
2018-03-31T05:41:23.180Z,5.62
2018-03-31T05:42:23.208Z,5.58
2018-03-31T05:43:23.017Z,5.62
2018-03-31T05:44:22.982Z,5.49
2018-03-31T05:45:22.849Z,5.47
2018-03-31T05:46:22.899Z,5.58
2018-03-31T05:47:22.710Z,5.58
2018-03-31T05:48:22.707Z,5.44
2018-03-31T05:49:22.523Z,5.47
2018-03-31T05:50:22.519Z,5.47
2018-03-31T05:51:22.355Z,5.45
2018-03-31T05:52:22.349Z,5.45
2018-03-31T05:53:22.214Z,5.49
2018-03-31T05:54:22.242Z,5.49
2018-03-31T05:55:22.044Z,5.55
2018-03-31T05:56:22.044Z,5.60
2018-03-31T05:57:21.974Z,5.55
2018-03-31T05:58:21.880Z,5.62
2018-03-31T05:59:21.700Z,5.73
2018-03-31T06:00:21.683Z,5.62
2018-03-31T06:01:21.531Z,5.66
2018-03-31T06:02:21.577Z,5.58
2018-03-31T06:03:21.389Z,5.60
2018-03-31T06:04:21.383Z,5.60
2018-03-31T06:05:21.201Z,5.70
2018-03-31T06:06:21.186Z,5.63
2018-03-31T06:07:21.046Z,5.67
2018-03-31T06:08:21.025Z,5.75
2018-03-31T06:09:20.875Z,5.84
2018-03-31T06:10:20.910Z,5.95
2018-03-31T06:11:20.720Z,5.90
2018-03-31T06:12:20.720Z,5.92
2018-03-31T06:13:20.567Z,5.92
2018-03-31T06:14:20.532Z,5.92
2018-03-31T06:15:20.384Z,5.87
2018-03-31T06:16:20.437Z,5.90
2018-03-31T06:17:20.233Z,5.92
2018-03-31T06:18:20.279Z,5.87
2018-03-31T06:19:20.090Z,6.03
2018-03-31T06:20:20.059Z,6.02
2018-03-31T06:21:19.900Z,6.01
2018-03-31T06:22:19.867Z,5.99
2018-03-31T06:23:19.726Z,5.88
2018-03-31T06:24:19.727Z,5.88
2018-03-31T06:25:19.568Z,5.83
2018-03-31T06:26:19.576Z,5.92
2018-03-31T06:27:19.402Z,5.99
2018-03-31T06:28:19.388Z,6.02
2018-03-31T06:29:19.273Z,6.17
2018-03-31T06:30:19.300Z,6.10
2018-03-31T06:31:19.073Z,6.02
2018-03-31T06:32:19.115Z,6.05
2018-03-31T06:33:19.889Z,6.27
2018-03-31T06:34:18.930Z,6.32
2018-03-31T06:35:18.772Z,6.20
2018-03-31T06:36:18.748Z,6.35
2018-03-31T06:37:18.591Z,6.46
2018-03-31T06:38:18.650Z,6.53
2018-03-31T06:39:18.444Z,6.57
2018-03-31T06:40:18.471Z,6.68
2018-03-31T06:41:18.256Z,6.75
2018-03-31T06:42:18.253Z,6.55
2018-03-31T06:43:18.083Z,6.50
2018-03-31T06:44:18.071Z,6.48
2018-03-31T06:45:17.943Z,6.53
2018-03-31T06:46:17.926Z,6.78
2018-03-31T06:47:17.761Z,6.90
2018-03-31T06:48:17.790Z,6.93
2018-03-31T06:49:17.605Z,6.99
2018-03-31T06:50:17.636Z,7.05
2018-03-31T06:51:17.473Z,7.36
2018-03-31T06:52:17.461Z,7.48
2018-03-31T06:53:17.285Z,7.37
2018-03-31T06:54:17.307Z,7.55
2018-03-31T06:55:17.131Z,7.79
2018-03-31T06:56:17.148Z,7.55
2018-03-31T06:57:16.948Z,7.36
2018-03-31T06:58:17.009Z,7.54
2018-03-31T06:59:16.783Z,7.84
2018-03-31T07:00:16.763Z,7.86
2018-03-31T07:01:16.621Z,8.04
2018-03-31T07:02:16.647Z,8.27
2018-03-31T07:03:16.460Z,8.78
2018-03-31T07:04:16.509Z,9.23
2018-03-31T07:05:16.402Z,9.27
2018-03-31T07:06:16.260Z,9.35
2018-03-31T07:07:16.129Z,9.16
2018-03-31T07:08:16.180Z,9.44
2018-03-31T07:09:15.966Z,9.19
2018-03-31T07:10:16.021Z,8.79
2018-03-31T07:11:15.826Z,9.56
2018-03-31T07:12:15.800Z,9.88
2018-03-31T07:13:15.657Z,9.41
2018-03-31T07:14:15.598Z,9.60
2018-03-31T07:15:15.487Z,9.92
2018-03-31T07:16:15.548Z,10.04
2018-03-31T07:17:15.322Z,9.24
2018-03-31T07:18:15.367Z,9.93
2018-03-31T07:19:15.189Z,9.58
2018-03-31T07:20:15.129Z,9.88
2018-03-31T07:21:15.035Z,9.70
2018-03-31T07:22:15.059Z,9.81
2018-03-31T07:23:14.850Z,10.16
2018-03-31T07:24:14.847Z,10.24
2018-03-31T07:25:14.691Z,9.49
2018-03-31T07:26:14.700Z,9.42
2018-03-31T07:27:14.527Z,9.83
2018-03-31T07:28:14.570Z,9.89
2018-03-31T07:29:14.369Z,9.89
2018-03-31T07:30:14.374Z,10.04
2018-03-31T07:31:14.274Z,10.39
2018-03-31T07:32:14.212Z,10.87
2018-03-31T07:33:14.049Z,10.90
2018-03-31T07:34:14.098Z,11.20
2018-03-31T07:35:13.900Z,10.29
2018-03-31T07:36:13.916Z,10.42
2018-03-31T07:37:13.742Z,10.83
2018-03-31T07:38:13.713Z,11.06
2018-03-31T07:39:13.569Z,11.38
2018-03-31T07:40:13.625Z,10.47
2018-03-31T07:41:13.423Z,10.29
2018-03-31T07:42:13.462Z,10.02
2018-03-31T07:43:13.251Z,10.47
2018-03-31T07:44:13.238Z,10.88
2018-03-31T07:45:13.083Z,11.11
2018-03-31T07:46:13.149Z,11.26
2018-03-31T07:47:12.968Z,11.01
2018-03-31T07:48:12.947Z,11.21
2018-03-31T07:49:12.878Z,11.09
2018-03-31T07:50:12.761Z,10.95
2018-03-31T07:51:12.611Z,11.09
2018-03-31T07:52:12.766Z,11.33
2018-03-31T07:53:12.485Z,11.70
2018-03-31T07:54:12.488Z,11.85
2018-03-31T07:55:12.311Z,12.03
2018-03-31T07:56:12.292Z,12.29
2018-03-31T07:57:12.161Z,12.04
2018-03-31T07:58:12.100Z,12.81
2018-03-31T07:59:11.989Z,12.67
2018-03-31T08:00:12.011Z,13.16
2018-03-31T08:01:11.826Z,12.85
2018-03-31T08:02:11.881Z,12.36
2018-03-31T08:03:11.682Z,12.33
2018-03-31T08:04:11.638Z,12.79
2018-03-31T08:05:11.511Z,13.46
2018-03-31T08:06:11.543Z,13.46
2018-03-31T08:07:11.375Z,14.39
2018-03-31T08:08:11.346Z,14.79
2018-03-31T08:09:11.207Z,15.25
2018-03-31T08:10:11.132Z,14.94
2018-03-31T08:11:11.044Z,15.52
2018-03-31T08:12:11.074Z,15.66
2018-03-31T08:13:10.973Z,15.28
2018-03-31T08:14:10.880Z,15.73
2018-03-31T08:15:10.725Z,16.13
2018-03-31T08:16:10.698Z,15.01
2018-03-31T08:17:10.574Z,15.74
2018-03-31T08:18:10.635Z,15.53
2018-03-31T08:19:10.462Z,15.80
2018-03-31T08:20:10.398Z,16.06
2018-03-31T08:21:10.265Z,16.36
2018-03-31T08:22:10.310Z,16.72
2018-03-31T08:23:10.141Z,15.37
2018-03-31T08:24:10.166Z,14.95
2018-03-31T08:25:10.049Z,15.34
2018-03-31T08:26:09.928Z,15.48
2018-03-31T08:27:09.793Z,15.11
2018-03-31T08:28:09.976Z,14.34
2018-03-31T08:29:09.640Z,15.28
2018-03-31T08:30:09.645Z,15.09
2018-03-31T08:31:09.498Z,14.54
2018-03-31T08:32:09.559Z,14.04
2018-03-31T08:33:09.354Z,14.04
2018-03-31T08:34:09.372Z,14.39
2018-03-31T08:35:09.199Z,14.11
2018-03-31T08:36:09.200Z,12.99
2018-03-31T08:37:09.030Z,12.87
2018-03-31T08:38:08.980Z,12.58
2018-03-31T08:39:08.886Z,13.43
2018-03-31T08:40:08.893Z,13.19
2018-03-31T08:41:08.726Z,14.06
2018-03-31T08:42:09.022Z,15.27
2018-03-31T08:43:08.599Z,15.86
2018-03-31T08:44:09.228Z,16.63
2018-03-31T08:45:08.469Z,17.18
2018-03-31T08:47:50.362Z,17.57
2018-03-31T08:48:50.309Z,17.24
2018-03-31T08:49:50.238Z,16.72
2018-03-31T08:50:50.237Z,16.29
2018-03-31T08:51:50.057Z,17.17
2018-03-31T08:52:50.044Z,17.15
2018-03-31T08:53:49.893Z,16.57
2018-03-31T08:54:49.845Z,14.95
2018-03-31T08:55:49.756Z,15.25
2018-03-31T08:56:49.764Z,16.18
2018-03-31T08:57:49.700Z,16.36
2018-03-31T08:58:49.561Z,15.78
2018-03-31T08:59:49.474Z,16.88
2018-03-31T09:00:49.543Z,17.71
2018-03-31T09:01:49.285Z,18.31
2018-03-31T09:02:49.282Z,18.66
2018-03-31T09:03:49.195Z,18.71
2018-03-31T09:04:49.089Z,18.72
2018-03-31T09:05:48.990Z,18.87
2018-03-31T09:06:49.037Z,18.93
2018-03-31T09:07:48.838Z,19.02
2018-03-31T09:08:48.803Z,19.06
2018-03-31T09:09:48.703Z,19.28
2018-03-31T09:10:48.771Z,19.32
2018-03-31T09:11:48.525Z,19.35
2018-03-31T09:12:48.533Z,19.20
2018-03-31T09:13:48.444Z,19.38
2018-03-31T09:14:48.438Z,19.62
2018-03-31T09:16:48.307Z,18.90
2018-03-31T09:17:48.089Z,18.44
2018-03-31T09:18:48.066Z,19.09
2018-03-31T09:19:47.955Z,18.82
2018-03-31T09:20:47.978Z,19.10
2018-03-31T09:21:47.808Z,19.47
2018-03-31T09:22:47.785Z,19.65
2018-03-31T09:23:47.632Z,19.61
2018-03-31T09:24:47.702Z,20.08
2018-03-31T09:25:47.508Z,20.35
2018-03-31T09:26:47.497Z,19.70
2018-03-31T09:27:47.406Z,19.87
2018-03-31T09:28:47.407Z,19.95
2018-03-31T09:29:47.215Z,19.89
2018-03-31T09:30:47.221Z,17.14
2018-03-31T09:31:47.080Z,17.92
2018-03-31T09:32:47.028Z,17.02
2018-03-31T09:33:46.916Z,16.92
2018-03-31T09:36:28.892Z,17.10
2018-03-31T09:37:28.859Z,17.92
2018-03-31T09:38:28.731Z,18.42
2018-03-31T09:39:28.743Z,18.83
2018-03-31T09:40:28.585Z,18.90
2018-03-31T09:41:28.550Z,18.99
2018-03-31T09:42:28.455Z,19.15
2018-03-31T09:43:28.536Z,19.86
2018-03-31T09:44:28.280Z,20.41
2018-03-31T09:45:28.283Z,19.80
2018-03-31T09:46:28.132Z,20.20
2018-03-31T09:47:28.219Z,20.46
2018-03-31T09:48:28.034Z,20.63
2018-03-31T09:49:27.992Z,20.68
2018-03-31T09:50:27.855Z,20.33
2018-03-31T09:51:27.903Z,19.92
2018-03-31T09:52:27.704Z,19.58
2018-03-31T09:53:27.743Z,20.23
2018-03-31T09:54:27.570Z,20.38
2018-03-31T09:55:27.623Z,19.60
2018-03-31T09:56:27.426Z,19.92
2018-03-31T09:57:27.454Z,19.80
2018-03-31T09:58:27.337Z,20.50
2018-03-31T09:59:27.334Z,20.30
2018-03-31T10:00:27.177Z,19.76
2018-03-31T10:01:27.146Z,19.92
2018-03-31T10:02:27.019Z,20.13
2018-03-31T10:03:27.173Z,20.34
2018-03-31T10:04:26.891Z,21.31
2018-03-31T10:05:26.891Z,21.90
2018-03-31T10:06:26.765Z,21.36
2018-03-31T10:07:26.797Z,21.01
2018-03-31T10:08:26.585Z,20.73
2018-03-31T10:09:26.679Z,21.01
2018-03-31T10:10:26.469Z,21.37
2018-03-31T10:11:26.508Z,20.88
2018-03-31T10:12:26.396Z,20.17
2018-03-31T10:13:26.313Z,21.11
2018-03-31T10:14:26.218Z,21.11
2018-03-31T10:15:26.225Z,20.81
2018-03-31T10:16:26.061Z,20.64
2018-03-31T10:17:26.058Z,20.87
2018-03-31T10:18:25.909Z,20.44
2018-03-31T10:19:26.140Z,20.41
2018-03-31T10:20:25.785Z,20.54
2018-03-31T10:21:25.740Z,20.38
2018-03-31T10:22:25.628Z,20.01
2018-03-31T10:23:25.593Z,20.64
2018-03-31T10:24:25.568Z,20.93
2018-03-31T10:25:25.560Z,20.35
2018-03-31T10:26:25.369Z,19.28
2018-03-31T10:27:25.409Z,19.92
2018-03-31T10:28:25.211Z,20.54
2018-03-31T10:29:25.207Z,20.54
2018-03-31T10:30:25.095Z,20.76
2018-03-31T10:31:25.102Z,21.13
2018-03-31T10:32:25.178Z,20.88
2018-03-31T10:33:24.996Z,20.82
2018-03-31T10:34:24.840Z,21.43
2018-03-31T10:35:24.862Z,20.73
2018-03-31T10:36:24.685Z,20.26
2018-03-31T10:37:24.727Z,20.30
2018-03-31T10:38:24.524Z,20.23
2018-03-31T10:39:24.536Z,19.82
2018-03-31T10:40:24.612Z,19.46
2018-03-31T10:41:24.440Z,19.95
2018-03-31T10:42:24.259Z,20.23
2018-03-31T10:43:24.263Z,20.12
2018-03-31T10:44:24.118Z,19.92
2018-03-31T10:45:24.154Z,20.37
2018-03-31T10:46:24.002Z,20.63
2018-03-31T10:47:23.971Z,21.53
2018-03-31T10:48:23.837Z,21.51
2018-03-31T10:49:23.877Z,21.26
2018-03-31T10:50:23.725Z,20.48
2018-03-31T10:51:23.724Z,20.42
2018-03-31T10:52:23.565Z,21.03
2018-03-31T10:53:23.631Z,21.03
2018-03-31T10:54:23.433Z,21.48
2018-03-31T10:55:23.413Z,21.85
2018-03-31T10:56:23.759Z,22.21
2018-03-31T10:57:23.337Z,22.27
2018-03-31T10:58:23.187Z,21.53
2018-03-31T10:59:23.244Z,22.66
2018-03-31T11:00:23.055Z,22.36
2018-03-31T11:01:23.098Z,21.94
2018-03-31T11:02:23.480Z,22.08
2018-03-31T11:03:22.952Z,21.89
2018-03-31T11:04:22.768Z,21.05
2018-03-31T11:05:23.476Z,20.88
2018-03-31T11:06:22.650Z,20.64
2018-03-31T11:07:22.708Z,20.90
2018-03-31T11:08:22.496Z,20.87
2018-03-31T11:09:22.472Z,20.83
2018-03-31T11:10:22.371Z,20.93
2018-03-31T11:11:22.387Z,20.78
2018-03-31T11:12:22.255Z,19.90
2018-03-31T11:13:22.398Z,20.54
2018-03-31T11:14:22.120Z,21.03
2018-03-31T11:15:22.409Z,20.72
2018-03-31T11:16:21.982Z,21.12
2018-03-31T11:17:22.591Z,20.87
2018-03-31T11:18:21.863Z,21.26
2018-03-31T11:21:03.926Z,21.74
2018-03-31T11:22:03.932Z,21.09
2018-03-31T11:23:03.793Z,20.79
2018-03-31T11:24:03.914Z,19.07
2018-03-31T11:25:03.649Z,19.71
2018-03-31T11:26:03.638Z,20.35
2018-03-31T11:27:03.506Z,20.57
2018-03-31T11:28:03.600Z,21.03
2018-03-31T11:29:03.383Z,22.06
2018-03-31T11:30:03.379Z,21.68
2018-03-31T11:31:03.250Z,21.64
2018-03-31T11:32:03.280Z,20.87
2018-03-31T11:33:03.125Z,21.24
2018-03-31T11:34:03.086Z,20.58
2018-03-31T11:35:02.970Z,20.82
2018-03-31T11:36:03.001Z,21.06
2018-03-31T11:37:02.856Z,20.57
2018-03-31T11:38:02.824Z,21.11
2018-03-31T11:39:02.734Z,21.01
2018-03-31T11:40:02.712Z,21.49
2018-03-31T11:41:02.562Z,21.08
2018-03-31T11:42:02.623Z,21.51
2018-03-31T11:43:02.444Z,21.19
2018-03-31T11:44:02.514Z,21.55
2018-03-31T11:45:02.305Z,21.58
2018-03-31T11:46:02.350Z,19.83
2018-03-31T11:47:02.163Z,19.42
2018-03-31T11:48:02.190Z,19.43
2018-03-31T11:49:02.044Z,20.41
2018-03-31T11:50:02.053Z,21.00
2018-03-31T11:51:01.898Z,21.12
2018-03-31T11:52:01.863Z,21.70
2018-03-31T11:53:01.754Z,22.27
2018-03-31T11:54:01.823Z,22.06
2018-03-31T11:55:01.622Z,20.75
2018-03-31T11:56:01.686Z,20.60
2018-03-31T11:57:06.500Z,21.13
2018-03-31T11:58:01.498Z,21.81
2018-03-31T11:59:01.397Z,21.85
2018-03-31T12:00:01.335Z,21.12
2018-03-31T12:01:01.251Z,21.27
2018-03-31T12:02:01.227Z,20.57
2018-03-31T12:03:01.089Z,19.13
2018-03-31T12:04:01.026Z,18.04
2018-03-31T12:05:00.977Z,17.39
2018-03-31T12:06:00.940Z,16.60
2018-03-31T12:07:00.815Z,16.23
2018-03-31T12:08:00.850Z,16.18
2018-03-31T12:09:00.682Z,16.10
2018-03-31T12:10:00.698Z,16.08
2018-03-31T12:11:00.599Z,16.16
2018-03-31T12:12:00.559Z,15.81
2018-03-31T12:13:00.403Z,15.58
2018-03-31T12:14:00.957Z,15.48
2018-03-31T12:15:00.424Z,15.03
2018-03-31T12:16:00.281Z,15.11
2018-03-31T12:17:00.114Z,15.15
2018-03-31T12:18:00.190Z,15.00
2018-03-31T12:18:59.962Z,14.86
2018-03-31T12:20:00.050Z,14.86
2018-03-31T12:20:59.898Z,14.79
2018-03-31T12:23:41.928Z,14.42
2018-03-31T12:24:41.915Z,14.38
2018-03-31T12:25:41.821Z,14.29
2018-03-31T12:26:41.824Z,14.12
2018-03-31T12:27:41.690Z,14.11
2018-03-31T12:28:41.637Z,14.21
2018-03-31T12:29:41.499Z,14.31
2018-03-31T12:30:41.439Z,14.26
2018-03-31T12:31:41.342Z,14.27
2018-03-31T12:32:41.355Z,14.13
2018-03-31T12:52:03.738Z,14.80
2018-03-31T12:53:03.524Z,14.74
2018-03-31T12:54:03.563Z,14.78
2018-03-31T12:55:03.376Z,15.11
2018-03-31T12:56:03.419Z,15.16
2018-03-31T12:57:03.235Z,15.27
2018-03-31T12:58:03.229Z,15.48
2018-03-31T12:59:03.054Z,15.53
2018-03-31T13:00:03.033Z,15.28
2018-03-31T13:01:02.915Z,15.15
2018-03-31T13:02:02.990Z,14.69
2018-03-31T13:03:02.764Z,14.83
2018-03-31T13:04:02.756Z,14.69
2018-03-31T13:05:02.608Z,14.72
2018-03-31T13:06:02.659Z,15.33
2018-03-31T13:07:02.465Z,15.23
2018-03-31T13:08:02.410Z,15.15
2018-03-31T13:09:02.284Z,15.05
2018-03-31T13:10:02.282Z,15.04
2018-03-31T13:11:02.146Z,15.01
2018-03-31T13:12:02.096Z,15.27
2018-03-31T13:13:02.005Z,15.40
2018-03-31T13:14:02.016Z,15.55
2018-03-31T13:15:01.828Z,15.68
2018-03-31T13:16:01.804Z,15.70
2018-03-31T13:17:01.681Z,15.68
2018-03-31T13:18:01.664Z,15.68
2018-03-31T13:19:01.522Z,15.46
2018-03-31T13:20:01.534Z,15.38
2018-03-31T13:21:01.367Z,15.35
2018-03-31T13:22:01.331Z,15.34
2018-03-31T13:23:01.233Z,15.23
2018-03-31T13:24:01.247Z,14.94
2018-03-31T13:25:01.052Z,15.07
2018-03-31T13:26:01.047Z,15.05
2018-03-31T13:27:00.896Z,14.94
2018-03-31T13:28:00.890Z,14.80
2018-03-31T13:29:00.737Z,14.80
2018-03-31T13:30:00.768Z,14.82
2018-03-31T13:31:00.601Z,14.66
2018-03-31T13:32:00.588Z,14.64
2018-03-31T13:33:00.477Z,14.57
2018-03-31T13:34:00.492Z,14.53